Latest Weather Observations for Warrnambool

IDV60801

Issued at 1:03 pm EDT Thursday 23 March 2017 (issued every 30 minutes, with the page automatically refreshed every 10 minutes)

About weather observations | Map of weather stations | Latest weather observations for VIC | Other Formats
Station Details ID: 090186 Name: WARRNAMBOOL AIRPORT NDB Lat: -38.29 Lon: 142.45 Height: 70.8 m
Data from the previous 72 hours. | See also: Recent months at Warrnambool
Date/Time
EDT
Temp
°C
App
Temp
°C
Dew
Point
°C
Rel
Hum
%
Delta-T
°C
Wind Press
QNH
hPa
Press
MSL
hPa
Rain since
9am
mm
Dir  Spd
km/h
Gust
km/h
Spd
kts
Gust
kts
23/01:00pm 22.2 19.6 13.8 59 4.9 ESE 20 30 11 16 1021.3 1021.2 0.2
23/12:30pm 20.9 17.5 12.6 59 4.7 ESE 22 33 12 18 1021.8 1021.7 0.2
23/12:00pm 20.9 18.3 13.8 64 4.1 ESE 20 32 11 17 1022.3 1022.2 0.0
23/11:30am 19.3 16.1 13.0 67 3.6 E 22 32 12 17 1022.5 1022.4 0.0
23/11:00am 19.4 15.5 13.3 68 3.5 ESE 26 37 14 20 1022.4 1022.3 0.0
23/10:30am 18.8 15.2 14.1 74 2.7 ESE 26 35 14 19 1022.4 1022.3 0.0
23/10:00am 17.9 16.2 14.8 82 1.8 SE 17 24 9 13 1022.5 1022.4 0.0
23/09:30am 17.2 15.7 15.2 88 1.2 SE 17 22 9 12 1022.3 1022.2 0.0
23/09:00am 15.9 15.0 14.8 93 0.6 SE 13 20 7 11 1022.3 1022.2 0.0
23/08:30am 14.5 13.9 13.5 94 0.6 SE 9 11 5 6 1022.1 1022.0 0.0
23/08:00am 13.4 12.1 12.5 94 0.5 SE 11 13 6 7 1021.8 1021.7 0.0
23/07:30am 13.0 11.6 12.1 94 0.5 SE 11 13 6 7 1021.5 1021.4 0.0
23/07:00am 13.2 11.8 12.3 94 0.5 SE 11 15 6 8 1021.2 1021.1 0.0
23/06:30am 13.5 11.8 12.6 94 0.5 SE 13 15 7 8 1021.0 1020.9 0.0
23/06:00am 14.0 12.5 13.1 94 0.5 SE 13 17 7 9 1020.8 1020.7 0.0
23/05:30am 14.1 12.6 13.1 94 0.6 SE 13 17 7 9 1020.8 1020.7 0.0
23/05:00am 14.1 13.0 13.1 94 0.6 SE 11 15 6 8 1020.8 1020.7 0.0
23/04:30am 14.0 12.5 13.1 94 0.5 SE 13 17 7 9 1020.9 1020.8 0.0
23/04:00am 14.1 12.6 13.1 94 0.6 SE 13 17 7 9 1020.9 1020.8 0.0
23/03:30am 14.1 13.0 13.1 94 0.6 SE 11 17 6 9 1020.9 1020.8 0.0
23/03:00am 13.8 13.0 12.9 94 0.5 SE 9 13 5 7 1020.8 1020.7 0.0
23/02:30am 14.3 13.3 13.3 94 0.6 SE 11 13 6 7 1020.9 1020.8 0.0
23/02:00am 14.3 13.3 13.3 94 0.6 SE 11 13 6 7 1020.9 1020.8 0.0
23/01:30am 14.7 13.8 13.7 94 0.6 SE 11 15 6 8 1021.0 1020.9 0.0
23/01:00am 15.0 13.8 14.0 94 0.6 SE 13 17 7 9 1021.1 1021.0 0.0
23/12:30am 15.2 14.1 14.2 94 0.6 SE 13 17 7 9 1021.2 1021.1 0.0
23/12:00am 15.3 14.2 14.3 94 0.6 SE 13 19 7 10 1021.1 1021.0 0.0
 
Date/Time
EDT
Temp
°C
App
Temp
°C
Dew
Point
°C
Rel
Hum
%
Delta-T
°C
Wind Press
QNH
hPa
Press
MSL
hPa
Rain since
9am
mm
Dir  Spd
km/h
Gust
km/h
Spd
kts
Gust
kts
22/11:30pm 15.6 14.6 14.6 94 0.6 SE 13 19 7 10 1021.3 1021.2 0.0
22/11:00pm 16.1 15.2 14.8 92 0.7 SE 13 17 7 9 1021.2 1021.1 0.0
22/10:30pm 16.5 14.9 14.9 90 0.9 ESE 17 20 9 11 1020.8 1020.7 0.0
22/10:00pm 17.0 14.9 15.3 90 1.0 SE 20 28 11 15 1020.9 1020.8 0.0
22/09:30pm 17.2 14.8 15.4 89 1.1 SE 22 30 12 16 1020.8 1020.7 0.0
22/09:00pm 17.4 15.1 15.6 89 1.1 SE 22 30 12 16 1020.5 1020.4 0.0
22/08:30pm 17.2 14.5 15.7 91 0.9 SE 24 30 13 16 1020.3 1020.2 0.0
22/08:00pm 17.3 14.3 15.8 91 0.9 SE 26 39 14 21 1020.0 1019.9 0.0
22/07:30pm 17.2 14.2 15.9 92 0.8 SSE 26 37 14 20 1019.9 1019.8 0.0
22/07:00pm 17.6 14.6 15.9 90 1.0 SSE 26 33 14 18 1019.8 1019.7 0.0
22/06:30pm 18.2 14.8 15.8 86 1.4 SSE 28 39 15 21 1019.4 1019.3 0.0
22/06:25pm 18.7 15.6 16.5 87 1.3 SSE 28 39 15 21 1019.4 1019.3 0.0
22/06:13pm 18.4 15.2 16.4 88 1.2 SSE 28 39 15 21 1019.2 1019.1 0.0
22/06:00pm 18.6 15.4 16.2 86 1.4 SSE 28 35 15 19 1019.1 1019.0 0.0
22/05:41pm 18.5 14.5 16.1 86 1.4 SSE 32 39 17 21 1019.1 1019.0 0.0
22/05:30pm 19.0 15.5 16.6 86 1.4 SSE 30 37 16 20 1019.0 1018.9 0.0
22/05:00pm 19.3 15.5 16.7 85 1.6 SSE 32 39 17 21 1018.9 1018.8 0.0
22/04:30pm 18.6 14.3 16.0 85 1.5 SSE 33 39 18 21 1018.9 1018.8 0.0
22/04:22pm 18.7 14.7 16.1 85 1.6 SSE 32 41 17 22 1018.8 1018.7 0.0
22/04:11pm 19.3 15.6 16.9 86 1.5 SSE 32 43 17 23 1018.7 1018.6 0.0
22/04:00pm 19.1 15.4 16.9 87 1.3 SSE 32 43 17 23 1018.8 1018.7 0.0
22/03:30pm 18.5 13.9 16.1 86 1.4 SSE 35 43 19 23 1018.9 1018.8 0.0
22/03:00pm 19.0 15.3 17.0 88 1.2 SSE 32 39 17 21 1018.9 1018.8 0.0
22/02:30pm 18.4 14.9 16.4 88 1.2 SSE 30 43 16 23 1018.9 1018.8 0.0
22/02:00pm 18.1 14.1 16.1 88 1.2 SSE 32 43 17 23 1019.2 1019.1 0.0
22/01:30pm 18.0 13.9 16.0 88 1.2 SSE 32 43 17 23 1019.4 1019.3 0.0
22/01:00pm 18.1 14.4 15.9 87 1.3 SSE 30 39 16 21 1019.6 1019.5 0.0
22/12:57pm 18.3 14.7 16.3 88 1.2 SSE 30 37 16 20 1019.6 1019.5 0.0
22/12:30pm 18.1 14.2 15.5 85 1.5 SSE 30 39 16 21 1019.7 1019.6 0.0
22/12:00pm 17.9 14.2 15.9 88 1.2 SSE 30 39 16 21 1020.0 1019.9 0.0
22/11:55am 18.6 15.7 17.1 91 0.9 SSE 28 37 15 20 1020.0 1019.9 0.0
22/11:30am 17.4 13.6 15.7 90 1.0 SSE 30 41 16 22 1020.2 1020.1 0.0
22/11:25am 17.3 13.4 15.6 90 1.0 SSE 30 41 16 22 1020.2 1020.1 0.0
22/11:00am 17.3 15.2 16.3 94 0.6 SSE 22 28 12 15 1020.0 1019.9 0.0
22/10:49am 17.2 15.5 16.2 94 0.6 SE 20 26 11 14 1019.9 1019.8 0.0
22/10:30am 16.8 15.1 15.8 94 0.6 SE 19 30 10 16 1019.9 1019.8 0.0
22/10:00am 16.3 14.2 15.3 94 0.6 SSE 20 28 11 15 1019.8 1019.7 0.0
22/09:30am 16.2 14.1 15.2 94 0.6 S 20 28 11 15 1019.6 1019.5 0.0
22/09:00am 16.2 14.7 15.2 94 0.6 SSE 17 20 9 11 1019.1 1019.0 51.8
22/08:30am 15.9 13.9 14.9 94 0.6 SE 19 26 10 14 1018.5 1018.4 51.8
22/08:00am 15.8 13.6 14.8 94 0.6 SE 20 28 11 15 1017.9 1017.8 51.8
22/07:30am 15.7 13.0 14.7 94 0.6 SE 22 30 12 16 1017.7 1017.6 51.8
22/07:18am 15.6 12.5 14.6 94 0.6 SE 24 35 13 19 1017.6 1017.5 51.8
22/07:00am 15.6 12.5 14.6 94 0.6 SSE 24 32 13 17 1017.5 1017.4 51.8
22/06:30am 15.6 12.1 14.6 94 0.6 SSE 26 35 14 19 1017.4 1017.3 51.8
22/06:00am 15.6 12.5 14.6 94 0.6 SSE 24 32 13 17 1017.3 1017.2 51.4
22/05:36am 15.7 12.7 14.7 94 0.6 SSE 24 37 13 20 1017.1 1017.0 51.2
22/05:30am 15.7 11.9 14.7 94 0.6 SSE 28 39 15 21 1017.1 1017.0 51.2
22/05:10am 15.7 12.7 14.7 94 0.6 SSE 24 32 13 17 1016.9 1016.8 51.2
22/05:00am 15.6 12.1 14.6 94 0.6 SSE 26 35 14 19 1016.8 1016.7 51.2
22/04:30am 15.7 11.1 14.7 94 0.6 SSE 32 46 17 25 1016.6 1016.5 51.0
22/04:00am 16.2 13.3 15.2 94 0.6 SSE 24 30 13 16 1016.5 1016.4 51.0
22/03:30am 16.4 13.2 15.4 94 0.6 SSE 26 33 14 18 1016.2 1016.1 50.8
22/03:28am 16.4 13.2 15.4 94 0.6 SSE 26 33 14 18 1016.2 1016.1 50.8
22/03:00am 16.2 14.1 15.2 94 0.6 SSE 20 30 11 16 1016.1 1016.0 50.8
22/02:30am 16.1 13.2 15.1 94 0.6 SSE 24 32 13 17 1016.0 1015.9 50.8
22/02:00am 16.0 13.4 15.0 94 0.6 SSE 22 32 12 17 1016.1 1016.0 50.8
22/01:30am 16.1 12.8 15.1 94 0.6 SE 26 37 14 20 1015.9 1015.8 50.8
22/01:00am 16.1 12.4 15.1 94 0.6 SE 28 39 15 21 1015.6 1015.4 50.8
22/12:38am 16.2 12.6 15.2 94 0.6 SE 28 39 15 21 1015.7 1015.5 50.8
22/12:30am 16.1 12.4 15.1 94 0.6 SE 28 41 15 22 1015.6 1015.4 50.8
22/12:24am 16.2 13.0 15.2 94 0.6 SE 26 35 14 19 1015.7 1015.5 50.8
22/12:00am 16.2 12.2 15.2 94 0.6 SSE 30 41 16 22 1015.5 1015.3 50.6
 
Date/Time
EDT
Temp
°C
App
Temp
°C
Dew
Point
°C
Rel
Hum
%
Delta-T
°C
Wind Press
QNH
hPa
Press
MSL
hPa
Rain since
9am
mm
Dir  Spd
km/h
Gust
km/h
Spd
kts
Gust
kts
21/11:38pm 16.2 11.8 15.2 94 0.6 SSE 32 43 17 23 1015.3 1015.1 50.6
21/11:30pm 16.3 12.0 15.3 94 0.6 SSE 32 43 17 23 1015.3 1015.1 50.6
21/11:00pm 16.2 12.2 15.2 94 0.6 SSE 30 43 16 23 1015.2 1015.0 50.4
21/10:47pm 15.9 11.8 14.9 94 0.6 SSE 30 41 16 22 1015.2 1015.0 50.2
21/10:32pm 15.9 11.4 14.9 94 0.6 SSE 32 46 17 25 1015.1 1014.9 50.2
21/10:30pm 15.9 11.2 14.9 94 0.6 SE 33 46 18 25 1015.1 1014.9 50.2
21/10:00pm 16.1 12.1 15.1 94 0.6 SSE 30 43 16 23 1015.0 1014.8 50.2
21/09:30pm 16.1 11.7 15.1 94 0.6 SSE 32 43 17 23 1014.6 1014.4 50.0
21/09:00pm 16.1 11.5 15.1 94 0.6 SSE 33 48 18 26 1014.4 1014.2 50.0
21/08:30pm 16.2 12.2 15.2 94 0.6 SSE 30 41 16 22 1013.9 1013.7 50.0
21/08:00pm 16.2 12.2 15.2 94 0.6 SSE 30 44 16 24 1013.6 1013.4 49.8
21/07:30pm 16.4 11.9 15.4 94 0.6 SE 33 48 18 26 1013.3 1013.1 49.4
21/07:00pm 16.6 12.2 15.6 94 0.6 SSE 33 46 18 25 1012.5 1012.4 49.4
21/06:38pm 16.7 11.9 15.7 94 0.6 SSE 35 54 19 29 1012.2 1012.1 49.2
21/06:30pm 16.7 12.9 15.7 94 0.6 SSE 30 41 16 22 1012.3 1012.2 49.2
21/06:20pm 16.9 13.2 15.9 94 0.6 SSE 30 43 16 23 1012.3 1012.2 49.2
21/06:00pm 17.0 12.9 16.0 94 0.6 SSE 32 41 17 22 1012.0 1011.9 49.2
21/05:30pm 17.3 13.1 16.3 94 0.6 SE 33 44 18 24 1011.9 1011.8 49.2
21/05:00pm 17.1 12.1 16.1 94 0.6 SE 37 56 20 30 1011.2 1011.1 49.2
21/04:34pm 17.1 12.1 16.1 94 0.6 SE 37 56 20 30 1011.2 1011.1 49.2
21/04:30pm 17.2 12.6 16.2 94 0.6 SE 35 52 19 28 1011.4 1011.3 49.2
21/04:23pm 17.2 13.2 16.2 94 0.6 SE 32 50 17 27 1011.5 1011.4 49.2
21/04:00pm 17.0 12.4 16.0 94 0.6 SSE 35 46 19 25 1011.9 1011.8 49.2
21/03:41pm 16.8 10.9 15.8 94 0.6 SSE 41 61 22 33 1011.6 1011.5 49.2
21/03:36pm 16.8 10.9 15.8 94 0.6 SSE 41 61 22 33 1011.5 1011.4 49.0
21/03:30pm 17.0 10.6 16.0 94 0.6 SSE 44 57 24 31 1011.3 1011.2 49.0
21/03:04pm 17.6 12.4 16.6 94 0.6 SSE 39 54 21 29 1011.4 1011.3 48.4
21/03:00pm 17.5 13.0 16.5 94 0.6 SSE 35 44 19 24 1011.5 1011.4 48.4
21/02:49pm 17.7 13.9 16.7 94 0.6 SSE 32 41 17 22 1011.9 1011.8 48.2
21/02:30pm 17.9 14.6 16.9 94 0.6 SSE 30 39 16 21 1012.0 1011.9 47.2
21/02:23pm 17.9 15.7 16.9 94 0.6 SE 24 35 13 19 1012.2 1012.1 44.6
21/02:19pm 17.9 15.7 16.9 94 0.6 SE 24 32 13 17 1012.3 1012.2 43.2
21/02:00pm 17.9 18.2 16.9 94 0.6 S 11 15 6 8 1012.7 1012.6 40.4
21/01:50pm 17.8 17.3 16.8 94 0.6 SSE 15 24 8 13 1012.7 1012.6 38.2
21/01:44pm 17.8 16.3 16.8 94 0.6 SSE 20 26 11 14 1012.6 1012.5 37.2
21/01:30pm 17.8 16.3 16.8 94 0.6 SSE 20 30 11 16 1012.6 1012.5 35.6
21/01:00pm 18.0 16.2 17.0 94 0.6 SE 22 32 12 17 1012.6 1012.5 28.8
21/12:30pm 18.0 15.1 17.0 94 0.6 SE 28 39 15 21 1012.7 1012.6 18.0
21/12:08pm 17.9 15.3 16.9 94 0.6 SE 26 35 14 19 1012.9 1012.7 6.6
21/12:00pm 18.1 16.0 17.1 94 0.6 SE 24 32 13 17 1013.0 1012.8 4.4
21/11:30am 18.3 16.6 17.3 94 0.6 SE 22 30 12 16 1013.1 1012.9 3.6
21/11:00am 18.4 18.1 17.4 94 0.6 SE 15 22 8 12 1013.1 1012.9 2.8
21/10:39am 18.2 18.2 17.2 94 0.6 SE 13 17 7 9 1013.2 1013.0 2.6
21/10:38am 18.3 18.3 17.3 94 0.6 SE 13 17 7 9 1013.2 1013.0 2.6
21/10:30am 18.1 18.1 17.1 94 0.6 SE 13 17 7 9 1013.2 1013.0 2.4
21/10:00am 18.0 18.3 17.0 94 0.6 SE 11 15 6 8 1013.2 1013.0 1.6
21/09:30am 17.7 18.3 16.7 94 0.6 ESE 9 13 5 7 1013.4 1013.2 0.8
21/09:00am 17.5 18.0 16.5 94 0.6 SE 9 11 5 6 1013.4 1013.2 7.6
21/08:30am 17.5 18.0 16.5 94 0.6 SE 9 13 5 7 1013.4 1013.2 6.4
21/08:16am 17.4 17.8 16.4 94 0.6 SE 9 11 5 6 1013.2 1013.0 5.6
21/08:00am 17.5 17.6 16.5 94 0.6 SSE 11 15 6 8 1013.1 1012.9 5.0
21/07:30am 17.4 17.8 16.4 94 0.6 SE 9 13 5 7 1013.0 1012.8 4.2
21/07:00am 17.4 18.2 16.4 94 0.6 SSE 7 9 4 5 1012.9 1012.7 3.4
21/06:30am 17.3 19.4 16.3 94 0.6 CALM 0 0 0 0 1012.7 1012.6 2.2
21/06:11am 17.3 18.1 16.3 94 0.6 SE 7 9 4 5 1012.9 1012.7 1.6
21/06:00am 17.2 18.1 16.2 94 0.6 SSE 6 7 3 4 1012.9 1012.7 1.4
21/05:30am 17.2 17.6 16.2 94 0.6 S 9 11 5 6 1013.0 1012.8 1.4
21/05:00am 17.2 17.9 16.2 94 0.6 SE 7 9 4 5 1013.2 1013.0 1.2
21/04:30am 17.2 17.6 16.2 94 0.6 SE 9 11 5 6 1013.3 1013.1 0.4
21/04:00am 16.9 17.5 15.9 94 0.6 NNE 7 9 4 5 1013.9 1013.7 0.0
21/03:30am 17.2 18.9 16.2 94 0.6 E 2 7 1 4 1013.6 1013.4 0.0
21/03:00am 17.1 18.0 16.1 94 0.6 ESE 6 9 3 5 1013.8 1013.6 0.0
21/02:30am 17.0 16.5 16.0 94 0.6 SE 13 15 7 8 1013.8 1013.6 0.0
21/02:00am 16.9 16.8 15.9 94 0.6 ESE 11 13 6 7 1013.9 1013.7 0.0
21/01:30am 17.0 16.5 16.0 94 0.6 SE 13 17 7 9 1014.0 1013.8 0.0
21/01:00am 17.2 16.8 16.2 94 0.6 SE 13 17 7 9 1014.3 1014.1 0.0
21/12:30am 17.1 17.4 16.1 94 0.6 S 9 13 5 7 1014.7 1014.5 0.0
21/12:00am 17.9 18.5 16.9 94 0.6 SSE 9 11 5 6 1015.0 1014.8 0.0
 
Date/Time
EDT
Temp
°C
App
Temp
°C
Dew
Point
°C
Rel
Hum
%
Delta-T
°C
Wind Press
QNH
hPa
Press
MSL
hPa
Rain since
9am
mm
Dir  Spd
km/h
Gust
km/h
Spd
kts
Gust
kts
20/11:30pm 17.9 18.9 16.9 94 0.6 SE 7 9 4 5 1015.3 1015.1 0.0
20/11:00pm 17.9 18.5 16.9 94 0.6 SE 9 13 5 7 1015.1 1014.9 0.0
20/10:30pm 18.1 18.8 17.1 94 0.6 SE 9 11 5 6 1015.1 1014.9 0.0
20/10:00pm 18.3 18.7 17.3 94 0.6 SE 11 13 6 7 1015.4 1015.2 0.0
20/09:30pm 18.3 18.7 17.3 94 0.6 ESE 11 15 6 8 1015.3 1015.1 0.0
20/09:00pm 18.1 17.7 17.1 94 0.6 ESE 15 20 8 11 1014.6 1014.4 0.0
20/08:30pm 18.2 17.8 17.2 94 0.6 SSE 15 22 8 12 1014.0 1013.8 0.0
20/08:00pm 18.3 17.6 17.3 94 0.6 SSE 17 20 9 11 1014.0 1013.8 0.0
20/07:30pm 19.2 19.4 17.7 91 0.9 S 13 15 7 8 1014.1 1013.9 0.0
20/07:00pm 20.8 21.1 17.0 79 2.3 S 11 15 6 8 1014.1 1013.9 0.0
20/06:30pm 21.2 21.5 17.0 77 2.6 S 11 15 6 8 1014.2 1014.0 0.0
20/06:00pm 22.0 21.9 16.9 73 3.1 SSE 13 17 7 9 1014.0 1013.8 0.0
20/05:30pm 21.8 20.8 16.5 72 3.2 S 17 20 9 11 1014.0 1013.8 0.0
20/05:00pm 21.9 21.6 16.4 71 3.3 SE 13 20 7 11 1014.2 1014.0 0.0
20/04:30pm 22.7 20.3 16.5 68 3.8 SSE 24 33 13 18 1013.9 1013.7 0.0
20/04:00pm 24.3 21.4 16.0 60 5.1 SSE 26 33 14 18 1013.9 1013.7 0.0
20/03:30pm 27.1 24.5 15.8 50 6.9 SSE 24 32 13 17 1013.9 1013.7 0.0
20/03:00pm 28.7 26.6 15.2 43 8.3 SSE 20 26 11 14 1014.0 1013.8 0.0
20/02:30pm 28.3 26.5 15.6 46 7.8 SSE 19 26 10 14 1014.1 1013.9 0.0
20/02:00pm 27.6 25.8 15.9 49 7.2 SSE 20 24 11 13 1014.4 1014.2 0.0
20/01:30pm 26.5 24.9 16.4 53 6.2 SSE 20 28 11 15 1014.7 1014.5 0.0

Other Formats:

Comma delimited format used in spreadsheet applications
http://www.bom.gov.au/fwo/IDV60801/IDV60801.94837.axf

JavaScript Object Notation format (JSON) in row-major order
http://www.bom.gov.au/fwo/IDV60801/IDV60801.94837.json